Gleeson, Arizona
Current Conditions -  °F | °C
As of 12:56 PM on Friday 21 Nov 2014 (Local Time) from KDUG Reporting Station
Clear Clear  
Wind Chill: 18°   Ceiling: Unl
Heat Index: 18°   Visibility: 10mi
Dew Point: -4°   Wind: 9mph
Humidity: 22%   Direction: 180°S
Pressure: 29.94"   Gusts: NA
Location:  31.7341°N, 109.494°W
Report Text: KDUG 211956Z AUTO 18008KT 10SM CLR 18/M04 A2994 RMK AO2 SLP103 T01781044
Loading
Personal Weather Stations






























Interactive Weather Map New forecast layout! Learn more

10-Day Weather Forecast

Advertisements
Track Severe Weather on mobile